KGCK/GCK METAR and TAF weather

Enter ICAO airport designator
Station Type Date Time Source
KGCK METAR 2021/05/12 00:54 UTC NOAA

KGCK 120054Z 07006KT 10SM OVC041 09/05 A3026 RMK AO2 SLP251 T00890050


Station Type Date Time Source
KGCK Decoded METAR 2021/05/12 00:54 UTC NOAA

GARDEN CITY REGIONAL AIRPORT, KS, United States (KGCK) 37-55N 100-43W 877M
May 11, 2021 - 08:54 PM EDT / 2021.05.12 0054 UTC
Wind: from the ENE (070 degrees) at 7 MPH (6 KT):0
Visibility: 10 mile(s):0
Sky conditions: overcast
Temperature: 48.0 F (8.9 C)
Dew Point: 41.0 F (5.0 C)
Relative Humidity: 76%
Pressure (altimeter): 30.26 in. Hg (1024 hPa)
ob: KGCK 120054Z 07006KT 10SM OVC041 09/05 A3026 RMK AO2 SLP251 T00890050
cycle: 1

Station Type Date Time Source
KGCK TAF 2021/05/11 19:52 UTC NOAA

TAF
AMD KGCK 111850Z 1119/1218 07012KT P6SM SCT009 BKN015 OVC045
FM120000 06008KT P6SM OVC015
FM120900 04005KT 5SM BR OVC010
FM121500 14009KT P6SM BKN020

Example: see airport list